• Join FlightAware (Why Join?)
  • Login
  • US Flag 
01:43AM EDT


 

Airport Tracker/Info


-or-


 

Live Flight TrackerFlight Track Log ✈ CSN3490 ✈ 22-Apr-2013 ✈ ZPPP / KMG - ZGGG / CAN

Flight Track Log - Related Links

Times and Time Zones

All times are in EDT time to prevent confusion due to time zone crossing. See the CSN3490 flight status page for this flight to view local times or setup timezone preferences in your user account.

Time Position Orientation Groundspeed Altitude Reporting Facility
EDT Latitude Longitude Course Direction KTS MPH feet Rate Location/Type
10:41AM 25.0828 103.0770 98° East  Level Estimated
10:42AM 25.0636 103.2247 98° East  Level Estimated
10:43AM 25.0442 103.3724 98° East  Level Estimated
10:44AM 25.0247 103.5201 98° East  Level Estimated
10:45AM 25.0050 103.6677 98° East  Level Estimated
10:46AM 24.9852 103.8153 98° East  Level Estimated
10:47AM 24.9652 103.9628 98° East  Level Estimated
10:48AM 24.9451 104.1103 99° East  Level Estimated
10:49AM 24.9249 104.2577 99° East  Level Estimated
10:50AM 24.9044 104.4051 99° East  Level Estimated
10:51AM 24.8839 104.5524 99° East  Level Estimated
10:52AM 24.8632 104.6997 99° East  Level Estimated
10:53AM 24.8424 104.8469 99° East  Level Estimated
10:54AM 24.8214 104.9941 99° East  Level Estimated
10:55AM 24.8003 105.1412 99° East  Level Estimated
10:56AM 24.7790 105.2883 99° East  Level Estimated
10:57AM 24.7576 105.4353 99° East  Level Estimated
10:58AM 24.7360 105.5823 99° East  Level Estimated
10:59AM 24.7143 105.7293 99° East  Level Estimated
11:00AM 24.6925 105.8761 99° East  Level Estimated
11:01AM 24.6705 106.0230 99° East  Level Estimated
11:02AM 24.6484 106.1697 99° East  Level Estimated
11:03AM 24.6261 106.3165 99° East  Level Estimated
11:04AM 24.6037 106.4631 100° East  Level Estimated
11:05AM 24.5811 106.6097 100° East  Level Estimated
11:06AM 24.5584 106.7563 100° East  Level Estimated
11:07AM 24.5356 106.9028 100° East  Level Estimated
11:08AM 24.5126 107.0492 100° East  Level Estimated
11:09AM 24.4895 107.1956 100° East  Level Estimated
11:10AM 24.4662 107.3420 100° East  Level Estimated
11:11AM 24.4428 107.4883 100° East  Level Estimated
11:12AM 24.4193 107.6345 100° East  Level Estimated
11:13AM 24.3956 107.7807 100° East  Level Estimated
11:14AM 24.3718 107.9268 100° East  Level Estimated
11:15AM 24.3478 108.0729 100° East  Level Estimated
11:16AM 24.3237 108.2189 100° East  Level Estimated
11:17AM 24.2994 108.3649 100° East  Level Estimated
11:18AM 24.2751 108.5108 100° East  Level Estimated
11:19AM 24.2505 108.6566 100° East  Level Estimated
11:20AM 24.2259 108.8024 100° East  Level Estimated
11:21AM 24.2011 108.9482 101° East  Level Estimated
11:22AM 24.1761 109.0939 101° East  Level Estimated
11:23AM 24.1511 109.2395 101° East  Level Estimated
11:24AM 24.1259 109.3850 101° East  Level Estimated
11:25AM 24.1005 109.5306 101° East  Level Estimated
11:26AM 24.0750 109.6760 101° East  Level Estimated
11:27AM 24.0494 109.8214 101° East  Level Estimated
11:28AM 24.0236 109.9667 101° East  Level Estimated
11:28AM 23.3990 110.6720 101° East 465 535 31,100  Level FlightAware
11:29AM 23.9977 110.1120 101° East  Level Estimated
11:29AM 23.3730 110.7960 103° East 463 533 31,100  Level FlightAware
11:29AM 23.3510 110.9000 103° East 464 534 31,100 -180 Level FlightAware
11:30AM 23.3370 110.9650 103° East 467 537 30,900 -840 Descending FlightAware
11:31AM 23.3140 111.0760 103° East 452 520 30,000 -1,560 Descending FlightAware
11:32AM 23.2910 111.1820 103° East 445 512 28,500 -1,740 Descending FlightAware
11:32AM 23.2740 111.2660 102° East 435 501 27,600 -1,020 Descending FlightAware
11:33AM 23.2580 111.3470 102° East 430 495 27,200 -1,560 Descending FlightAware
11:34AM 23.2370 111.4460 103° East 445 512 25,400 -1,500 Descending FlightAware
11:35AM 23.2130 111.5600 103° East 433 498 24,700 -1,260 Descending FlightAware
11:35AM 23.1970 111.6570 100° East 418 481 23,300 -1,140 Descending FlightAware
11:36AM 23.1880 111.7250 98° East 418 481 23,200 -120 Descending FlightAware
11:37AM 23.1770 111.8130 98° East 418 481 23,200 -2,220 Level FlightAware
11:37AM 23.1600 111.9050 101° East 398 458 20,100 -3,480 Descending FlightAware
11:38AM 23.1500 111.9720 99° East 394 453 19,200 -600 Descending FlightAware
11:39AM 23.1360 112.0670 99° East 394 453 19,200 -1,560 Level FlightAware
11:39AM 23.1220 112.1550 100° East 376 433 16,800 -2,580 Descending FlightAware
11:40AM 23.1100 112.2290 100° East 367 422 15,800 -1,680 Descending FlightAware
11:41AM 23.0980 112.3100 99° East 366 421 14,500 -1,560 Descending FlightAware
11:42AM 23.0870 112.3800 100° East 360 414 13,600 -1,500 Descending FlightAware
11:42AM 23.0740 112.4600 100° East 354 407 12,400 -1,560 Descending FlightAware
11:43AM 23.0690 112.5320 94° East 350 403 11,400 -1,440 Descending FlightAware
11:44AM 23.0690 112.6010 90° East 342 394 10,500 -1,080 Descending FlightAware
11:44AM 23.0690 112.6750 90° East 322 371 9,900 -960 Descending FlightAware
11:45AM 23.0690 112.7150 90° East 315 362 9,400 -1,200 Descending FlightAware
11:45AM 23.0690 112.7640 90° East 313 360 8,800 -1,200 Descending FlightAware
11:46AM 23.0680 112.7860 93° East 311 358 8,500 -1,200 Descending FlightAware
11:46AM 23.0680 112.8270 90° East 307 353 8,000 -900 Descending FlightAware
11:46AM 23.0680 112.8480 90° East 300 345 7,900 -180 Descending FlightAware
11:47AM 23.0680 112.8910 90° East 275 316 7,900 -600 Level FlightAware
11:47AM 23.0680 112.9270 90° East 271 312 7,400 -1,140 Descending FlightAware
11:48AM 23.0670 112.9680 92° East 268 308 6,900 -1,020 Descending FlightAware
11:48AM 23.0670 112.9980 90° East 268 308 6,500 -900 Descending FlightAware
11:49AM 23.0670 113.0400 90° East 259 298 6,100 -540 Descending FlightAware
11:49AM 23.0670 113.0600 90° East 250 288 6,100 -480 Level FlightAware
11:49AM 23.0700 113.0880 83° East 249 287 5,800 -900 Descending FlightAware
11:49AM 23.0800 113.1060 59° Northeast 248 285 5,500 -960 Descending FlightAware
11:50AM 23.0980 113.1360 57° Northeast 247 284 5,100 -900 Descending FlightAware
11:50AM 23.1150 113.1610 54° Northeast 245 282 4,700 -900 Descending FlightAware
11:51AM 23.1240 113.1760 57° Northeast 244 281 4,500 -900 Descending FlightAware
11:51AM 23.1410 113.2020 55° Northeast 243 280 4,100 -660 Descending FlightAware
11:52AM 23.1640 113.2270 45° Northeast 231 266 3,900 -540 Descending FlightAware
11:52AM 23.1920 113.2330 11° North 213 245 3,600 -900 Descending FlightAware
11:53AM 23.2210 113.2420 16° North 214 246 3,000 -1,200 Descending FlightAware
11:53AM 23.2510 113.2500 14° North 210 242 2,400 -1,140 Descending FlightAware
11:53AM 23.2750 113.2560 13° North 195 224 2,000 -960 Descending FlightAware
11:54AM 23.2950 113.2620 15° North 176 203 1,600 -960 Descending FlightAware
11:54AM 23.3130 113.2660 12° North 163 188 1,200 -480 Descending FlightAware
11:55AM 23.3310 113.2710 14° North 163 188 1,200  Level FlightAware
11:57AM 23.3924 113.2988 23° Northeast  Level Estimated
11:58AM 23.3924 113.2988 223° Southwest  Level Estimated
11:59AM 23.3924 113.2988 223° Southwest  Level Estimated
12:00PM 23.3924 113.2988 223° Southwest  Level Estimated
12:01PM 23.3924 113.2988 223° Southwest  Level Estimated
12:02PM 23.3924 113.2988 223° Southwest  Level Estimated
12:03PM 23.3924 113.2988 223° Southwest  Level Estimated
12:04PM 23.3924 113.2988 223° Southwest  Level Estimated
12:05PM 23.3924 113.2988 223° Southwest  Level Estimated
12:06PM 23.3924 113.2988 223° Southwest  Level Estimated
12:07PM 23.3924 113.2988 223° Southwest  Level Estimated